Terminal Aerodrome Forecast
Issued by NWS

Home | Current Version | Previous Version | Text Only | Print | Product List | Glossary On
Versions: 1 2 3 4 5 6 7 8 9 10 11 12 13 14 15
471
FTUS46 KSEW 161136
TAFBFI
TAF
KBFI 161136Z 1612/1712 16007KT P6SM VCSH FEW060 BKN100 BKN110
     FM161400 17011KT P6SM VCSH OVC030
     FM162100 16006G19KT P6SM VCSH SCT030 BKN045
     FM170400 16006KT P6SM SCT045 SCT120 BKN200=

USA.gov is the U.S. government's official web portal to all federal, state and local government web resources and services.